createdAt,value
2023-01-25T00:06:23.334Z,23.63
2023-01-25T00:08:53.998Z,25.55
2023-01-25T00:11:22.342Z,25.48
2023-01-25T00:13:50.169Z,24.70
2023-01-25T00:16:17.765Z,24.15
2023-01-25T00:18:45.236Z,24.65
2023-01-25T00:21:17.442Z,24.90
2023-01-25T00:23:48.641Z,25.65
2023-01-25T00:26:16.458Z,25.25
2023-01-25T00:28:44.086Z,25.45
2023-01-25T00:31:17.329Z,25.20
2023-01-25T00:33:51.531Z,25.10
2023-01-25T00:36:42.346Z,25.50
2023-01-25T00:39:14.557Z,24.10
2023-01-25T00:41:42.008Z,25.10
2023-01-25T00:44:09.545Z,23.95
2023-01-25T00:46:37.533Z,25.02
2023-01-25T00:49:07.165Z,24.55
2023-01-25T00:51:34.845Z,25.20
2023-01-25T00:54:02.577Z,26.65
2023-01-25T00:56:30.438Z,25.92
2023-01-25T00:58:57.939Z,26.08
2023-01-25T01:03:36.751Z,26.45
2023-01-25T01:06:05.799Z,25.55
2023-01-25T01:08:37.539Z,28.05
2023-01-25T01:11:07.275Z,27.50
2023-01-25T01:13:36.272Z,28.58
2023-01-25T01:16:08.488Z,28.98
2023-01-25T01:18:37.097Z,27.55
2023-01-25T01:21:04.607Z,28.75
2023-01-25T01:23:33.692Z,28.13
2023-01-25T01:26:01.618Z,29.05
2023-01-25T01:28:29.870Z,28.67
2023-01-25T01:31:04.578Z,30.15
2023-01-25T01:33:36.317Z,28.92
2023-01-25T01:36:08.023Z,29.35
2023-01-25T01:38:35.550Z,29.00
2023-01-25T01:41:03.505Z,29.13
2023-01-25T01:43:31.680Z,29.77
2023-01-25T01:46:01.879Z,30.52
2023-01-25T01:48:55.887Z,29.25
2023-01-25T01:51:27.794Z,28.42
2023-01-25T01:54:16.752Z,29.17
2023-01-25T01:56:50.155Z,28.55
2023-01-25T01:59:18.823Z,28.58
2023-01-25T02:01:46.401Z,28.60
2023-01-25T02:04:14.871Z,29.20
2023-01-25T02:06:45.609Z,29.77
2023-01-25T02:09:17.550Z,29.27
2023-01-25T02:11:45.340Z,29.33
2023-01-25T02:14:16.160Z,29.27
2023-01-25T02:16:44.421Z,29.20
2023-01-25T02:19:16.868Z,29.77
2023-01-25T02:21:46.839Z,29.23
2023-01-25T02:24:22.453Z,31.05
2023-01-25T02:26:51.019Z,30.15
2023-01-25T02:29:24.392Z,31.08
2023-01-25T02:31:59.980Z,30.55
2023-01-25T02:34:28.761Z,29.42
2023-01-25T02:36:56.433Z,30.88
2023-01-25T02:39:26.725Z,31.63
2023-01-25T02:44:25.755Z,30.80
2023-01-25T02:46:53.788Z,30.77
2023-01-25T02:49:22.317Z,31.52
2023-01-25T02:51:57.900Z,31.05
2023-01-25T02:54:32.548Z,32.17
2023-01-25T02:57:00.465Z,30.67
2023-01-25T02:59:35.230Z,31.10
2023-01-25T03:02:02.768Z,32.50
2023-01-25T03:04:31.744Z,30.88
2023-01-25T03:06:59.903Z,31.38
2023-01-25T03:09:28.785Z,31.65
2023-01-25T03:11:56.442Z,32.45
2023-01-25T03:14:24.209Z,30.35
2023-01-25T03:16:52.468Z,31.45
2023-01-25T03:19:23.625Z,31.30
2023-01-25T03:21:52.595Z,34.47
2023-01-25T03:24:22.499Z,31.55
2023-01-25T03:27:08.967Z,32.40
2023-01-25T03:29:50.358Z,32.97
2023-01-25T03:32:22.644Z,33.53
2023-01-25T03:34:52.132Z,33.35
2023-01-25T03:37:21.328Z,33.60
2023-01-25T03:39:54.406Z,33.88
2023-01-25T03:42:27.213Z,35.38
2023-01-25T03:44:58.242Z,33.90
2023-01-25T03:47:26.347Z,35.35
2023-01-25T03:49:53.964Z,34.35
2023-01-25T03:52:38.701Z,35.60
2023-01-25T03:55:24.864Z,35.97
2023-01-25T03:57:56.268Z,37.08
2023-01-25T04:00:23.883Z,38.00
2023-01-25T04:02:59.242Z,36.92
2023-01-25T04:05:31.038Z,35.35
2023-01-25T04:07:59.719Z,37.38
2023-01-25T04:10:36.869Z,38.40
2023-01-25T04:13:05.394Z,38.97
2023-01-25T04:15:33.791Z,38.40
2023-01-25T04:18:08.266Z,39.55
2023-01-25T04:20:38.896Z,38.80
2023-01-25T04:23:09.545Z,37.63
2023-01-25T04:25:39.444Z,38.92
2023-01-25T04:28:12.922Z,38.75
2023-01-25T04:30:40.473Z,39.30
2023-01-25T04:33:08.155Z,39.25
2023-01-25T04:35:36.117Z,38.78
2023-01-25T04:38:08.013Z,39.15
2023-01-25T04:40:41.597Z,39.90
2023-01-25T04:43:11.054Z,38.35
2023-01-25T04:45:38.604Z,37.80
2023-01-25T04:48:14.131Z,37.50
2023-01-25T04:50:50.440Z,38.10
2023-01-25T04:53:22.651Z,39.50
2023-01-25T04:55:51.409Z,36.97
2023-01-25T04:58:22.261Z,39.72
2023-01-25T05:00:52.535Z,39.78
2023-01-25T05:03:21.325Z,38.17
2023-01-25T05:05:49.913Z,39.53
2023-01-25T05:08:23.237Z,40.03
2023-01-25T05:10:53.446Z,38.80
2023-01-25T05:13:40.931Z,39.63
2023-01-25T05:16:14.742Z,40.38
2023-01-25T05:18:48.943Z,41.10
2023-01-25T05:21:42.510Z,40.70
2023-01-25T05:24:13.545Z,42.40
2023-01-25T05:27:00.341Z,40.28
2023-01-25T05:29:38.478Z,41.55
2023-01-25T05:32:10.888Z,41.30
2023-01-25T05:34:39.870Z,41.33
2023-01-25T05:37:08.714Z,39.70
2023-01-25T05:39:40.859Z,41.25
2023-01-25T05:42:12.996Z,45.38
2023-01-25T05:44:40.955Z,45.90
2023-01-25T05:47:18.835Z,44.78
2023-01-25T05:49:47.601Z,45.58
2023-01-25T05:52:26.036Z,44.03
2023-01-25T05:54:54.454Z,43.08
2023-01-25T05:57:24.926Z,44.03
2023-01-25T05:59:53.445Z,46.05
2023-01-25T06:02:21.673Z,45.35
2023-01-25T06:04:50.100Z,45.03
2023-01-25T06:07:23.896Z,46.43
2023-01-25T06:09:53.138Z,45.67
2023-01-25T06:12:23.793Z,48.45
2023-01-25T06:14:52.361Z,49.67
2023-01-25T06:17:22.155Z,45.83
2023-01-25T06:20:18.926Z,47.53
2023-01-25T06:23:07.794Z,48.78
2023-01-25T06:25:35.382Z,48.35
2023-01-25T06:28:03.073Z,50.40
2023-01-25T06:30:30.779Z,51.20
2023-01-25T06:33:01.826Z,50.22
2023-01-25T06:35:29.775Z,49.85
2023-01-25T06:37:57.896Z,51.08
2023-01-25T06:40:26.030Z,50.70
2023-01-25T06:42:57.012Z,49.15
2023-01-25T06:45:24.747Z,49.65
2023-01-25T06:47:52.371Z,49.90
2023-01-25T06:50:28.634Z,48.58
2023-01-25T06:52:57.174Z,51.20
2023-01-25T06:55:25.052Z,51.92
2023-01-25T06:57:52.894Z,48.65
2023-01-25T07:00:26.676Z,50.42
2023-01-25T07:02:54.347Z,50.15
2023-01-25T07:05:24.847Z,50.67
2023-01-25T07:10:20.295Z,48.65
2023-01-25T07:12:47.691Z,49.20
2023-01-25T07:15:15.515Z,49.13
2023-01-25T07:17:43.115Z,49.63
2023-01-25T07:20:10.890Z,48.53
2023-01-25T07:22:38.542Z,49.30
2023-01-25T07:25:07.297Z,49.55
2023-01-25T07:27:35.413Z,50.17
2023-01-25T07:30:03.444Z,50.92
2023-01-25T07:32:31.096Z,51.78
2023-01-25T07:34:58.551Z,53.08
2023-01-25T07:37:27.958Z,53.63
2023-01-25T07:39:58.703Z,52.47
2023-01-25T07:42:27.372Z,51.50
2023-01-25T07:45:12.621Z,52.30
2023-01-25T07:47:40.297Z,52.08
2023-01-25T07:50:08.314Z,52.55
2023-01-25T07:52:36.069Z,52.08
2023-01-25T07:55:03.674Z,50.63
2023-01-25T07:57:31.130Z,54.38
2023-01-25T07:59:58.761Z,54.35
2023-01-25T08:02:26.592Z,52.85
2023-01-25T08:04:55.086Z,52.85
2023-01-25T08:07:23.696Z,52.92
2023-01-25T08:09:51.602Z,53.20
2023-01-25T08:12:20.025Z,51.92
2023-01-25T08:14:50.981Z,53.13
2023-01-25T08:17:18.675Z,52.22
2023-01-25T08:19:46.029Z,51.72
2023-01-25T08:22:13.930Z,50.25
2023-01-25T08:24:41.468Z,53.33
2023-01-25T08:27:09.023Z,51.13
2023-01-25T08:29:36.482Z,53.90
2023-01-25T08:32:06.518Z,52.35
2023-01-25T08:34:34.631Z,51.05
2023-01-25T08:37:02.223Z,52.45
2023-01-25T08:39:29.810Z,55.88
2023-01-25T08:41:57.301Z,53.25
2023-01-25T08:44:26.165Z,57.20
2023-01-25T08:46:53.902Z,56.17
2023-01-25T08:49:24.496Z,51.83
2023-01-25T08:51:53.214Z,54.88
2023-01-25T08:54:22.534Z,53.75
2023-01-25T08:56:51.111Z,51.92
2023-01-25T08:59:18.773Z,52.13
2023-01-25T09:01:46.552Z,53.03
2023-01-25T09:04:14.095Z,51.65
2023-01-25T09:06:41.657Z,53.85
2023-01-25T09:09:09.315Z,52.35
2023-01-25T09:11:40.361Z,53.10
2023-01-25T09:14:09.140Z,53.25
2023-01-25T09:16:36.599Z,54.38
2023-01-25T09:19:05.585Z,54.78
2023-01-25T09:21:33.530Z,51.83
2023-01-25T09:24:08.603Z,52.08
2023-01-25T09:26:38.827Z,51.97
2023-01-25T09:29:08.151Z,52.22
2023-01-25T09:31:36.031Z,52.40
2023-01-25T09:34:10.145Z,52.00
2023-01-25T09:36:38.049Z,53.35
2023-01-25T09:39:05.747Z,53.63
2023-01-25T09:41:53.443Z,51.72
2023-01-25T09:44:21.269Z,51.75
2023-01-25T09:46:52.488Z,52.17
2023-01-25T09:49:29.083Z,53.10
2023-01-25T09:52:03.162Z,50.63
2023-01-25T09:54:42.282Z,50.45
2023-01-25T09:57:16.501Z,51.72
2023-01-25T09:59:45.063Z,52.75
2023-01-25T10:02:30.920Z,52.97
2023-01-25T10:05:02.490Z,50.47
2023-01-25T10:07:35.342Z,48.30
2023-01-25T10:10:27.938Z,47.83
2023-01-25T10:12:55.955Z,50.17
2023-01-25T10:15:24.822Z,49.15
2023-01-25T10:18:00.771Z,50.83
2023-01-25T10:20:47.602Z,50.90
2023-01-25T10:23:39.700Z,50.35
2023-01-25T10:26:18.835Z,50.00
2023-01-25T10:29:05.075Z,49.08
2023-01-25T10:31:47.177Z,49.47
2023-01-25T10:34:20.273Z,51.10
2023-01-25T10:37:17.299Z,48.45
2023-01-25T10:39:57.739Z,47.90
2023-01-25T10:44:52.542Z,48.00
2023-01-25T10:47:24.331Z,51.88
2023-01-25T10:49:55.696Z,49.78
2023-01-25T10:52:24.551Z,51.95
2023-01-25T10:55:11.249Z,50.47
2023-01-25T10:57:39.492Z,51.65
2023-01-25T11:00:11.469Z,51.75
2023-01-25T11:02:42.384Z,50.55
2023-01-25T11:05:20.291Z,50.25
2023-01-25T11:07:48.421Z,50.47
2023-01-25T11:10:36.463Z,53.13
2023-01-25T11:13:17.171Z,52.42
2023-01-25T11:15:46.049Z,51.55
2023-01-25T11:18:35.033Z,52.15
2023-01-25T11:21:05.878Z,50.17
2023-01-25T11:23:33.981Z,51.30
2023-01-25T11:26:12.775Z,50.80
2023-01-25T11:28:40.548Z,51.90
2023-01-25T11:31:12.496Z,52.20
2023-01-25T11:33:40.646Z,52.85
2023-01-25T11:36:11.374Z,51.13
2023-01-25T11:38:41.896Z,53.97
2023-01-25T11:41:09.336Z,51.15
2023-01-25T11:43:58.766Z,55.08
2023-01-25T11:46:44.911Z,53.90
2023-01-25T11:49:18.938Z,52.17
2023-01-25T11:52:06.924Z,55.08
2023-01-25T11:54:40.086Z,53.90
2023-01-25T11:57:16.793Z,55.42
2023-01-25T11:59:55.059Z,51.55
2023-01-25T12:02:25.846Z,51.80
2023-01-25T12:05:02.365Z,52.80
2023-01-25T12:07:44.206Z,54.67
2023-01-25T12:10:24.508Z,55.47
2023-01-25T12:12:55.476Z,56.58
2023-01-25T12:15:34.492Z,54.55
2023-01-25T12:18:21.026Z,55.45
2023-01-25T12:21:01.131Z,58.40
2023-01-25T12:23:37.845Z,59.13
2023-01-25T12:26:24.950Z,58.10
2023-01-25T12:29:05.556Z,57.20
2023-01-25T12:31:54.539Z,58.97
2023-01-25T12:34:24.707Z,63.15
2023-01-25T12:39:29.567Z,60.42
2023-01-25T12:42:12.478Z,58.88
2023-01-25T12:44:42.235Z,62.95
2023-01-25T12:47:14.990Z,61.10
2023-01-25T12:49:59.379Z,60.85
2023-01-25T12:52:35.407Z,58.35
2023-01-25T12:55:04.093Z,60.75
2023-01-25T12:57:34.639Z,61.30
2023-01-25T13:00:23.901Z,61.10
2023-01-25T13:02:55.395Z,62.43
2023-01-25T13:05:22.936Z,63.70
2023-01-25T13:08:23.081Z,61.67
2023-01-25T13:11:09.040Z,64.30
2023-01-25T13:13:36.642Z,59.83
2023-01-25T13:16:23.118Z,63.45
2023-01-25T13:18:51.579Z,61.65
2023-01-25T13:21:37.641Z,62.33
2023-01-25T13:24:11.410Z,63.50
2023-01-25T13:26:48.663Z,60.55
2023-01-25T13:29:43.047Z,60.10
2023-01-25T13:32:15.935Z,61.53
2023-01-25T13:34:55.909Z,62.35
2023-01-25T13:37:23.365Z,61.65
2023-01-25T13:39:52.633Z,61.75
2023-01-25T13:42:23.179Z,59.25
2023-01-25T13:47:30.551Z,58.92
2023-01-25T13:50:13.494Z,61.15
2023-01-25T13:52:57.584Z,58.60
2023-01-25T13:55:26.033Z,61.30
2023-01-25T13:57:58.147Z,59.92
2023-01-25T14:00:26.779Z,62.25
2023-01-25T14:02:56.358Z,60.55
2023-01-25T14:05:27.620Z,62.25
2023-01-25T14:07:56.858Z,59.28
2023-01-25T14:10:26.689Z,59.97
2023-01-25T14:12:58.760Z,59.20
2023-01-25T14:15:32.382Z,61.08
2023-01-25T14:18:20.729Z,62.78
2023-01-25T14:20:54.038Z,62.70
2023-01-25T14:23:24.134Z,61.20
2023-01-25T14:25:54.743Z,62.15
2023-01-25T14:28:24.461Z,61.00
2023-01-25T14:31:15.446Z,63.83
2023-01-25T14:33:48.104Z,60.75
2023-01-25T14:36:24.559Z,62.80
2023-01-25T14:38:52.907Z,60.60
2023-01-25T14:41:28.666Z,61.58
2023-01-25T14:43:57.520Z,61.90
2023-01-25T14:46:27.150Z,59.85
2023-01-25T14:49:10.355Z,60.80
2023-01-25T14:51:43.509Z,61.33
2023-01-25T14:54:17.279Z,59.42
2023-01-25T14:56:46.530Z,60.22
2023-01-25T14:59:23.614Z,58.10
2023-01-25T15:01:54.565Z,57.00
2023-01-25T15:04:23.768Z,57.42
2023-01-25T15:06:55.168Z,57.58
2023-01-25T15:09:36.678Z,59.28
2023-01-25T15:12:23.964Z,58.00
2023-01-25T15:14:55.708Z,57.92
2023-01-25T15:17:39.814Z,57.80
2023-01-25T15:20:09.031Z,57.95
2023-01-25T15:22:40.444Z,54.42
2023-01-25T15:25:22.627Z,56.45
2023-01-25T15:27:52.865Z,59.03
2023-01-25T15:30:22.083Z,57.33
2023-01-25T15:32:51.298Z,57.25
2023-01-25T15:35:22.550Z,58.10
2023-01-25T15:37:50.899Z,56.03
2023-01-25T15:40:18.852Z,54.13
2023-01-25T15:42:51.473Z,58.17
2023-01-25T15:45:20.221Z,54.75
2023-01-25T15:47:47.852Z,53.92
2023-01-25T15:50:18.495Z,53.30
2023-01-25T15:52:46.588Z,51.35
2023-01-25T15:55:15.273Z,53.25
2023-01-25T15:57:45.045Z,53.33
2023-01-25T16:00:21.561Z,53.33
2023-01-25T16:02:49.412Z,58.42
2023-01-25T16:05:18.211Z,56.13
2023-01-25T16:07:46.262Z,55.42
2023-01-25T16:10:23.983Z,53.55
2023-01-25T16:12:52.449Z,55.05
2023-01-25T16:15:20.363Z,58.33
2023-01-25T16:17:48.251Z,54.28
2023-01-25T16:20:21.984Z,56.00
2023-01-25T16:22:50.135Z,55.92
2023-01-25T16:25:17.893Z,56.35
2023-01-25T16:27:46.065Z,55.97
2023-01-25T16:30:18.804Z,56.65
2023-01-25T16:32:46.871Z,55.95
2023-01-25T16:35:14.450Z,58.00
2023-01-25T16:37:42.612Z,56.88
2023-01-25T16:40:39.086Z,57.92
2023-01-25T16:43:07.159Z,58.40
2023-01-25T16:45:35.157Z,58.80
2023-01-25T16:48:02.677Z,60.58
2023-01-25T16:50:30.420Z,57.67
2023-01-25T16:53:00.013Z,57.30
2023-01-25T16:55:27.830Z,59.38
2023-01-25T16:57:55.877Z,56.55
2023-01-25T17:00:25.158Z,57.00
2023-01-25T17:02:59.023Z,56.13
2023-01-25T17:05:33.251Z,63.53
2023-01-25T17:08:00.872Z,54.92
2023-01-25T17:10:30.639Z,54.75
2023-01-25T17:12:58.221Z,58.72
2023-01-25T17:15:27.784Z,54.63
2023-01-25T17:17:55.185Z,55.88
2023-01-25T17:20:26.643Z,54.45
2023-01-25T17:22:54.175Z,56.78
2023-01-25T17:25:22.118Z,54.10
2023-01-25T17:27:50.885Z,55.70
2023-01-25T17:30:18.719Z,52.40
2023-01-25T17:32:46.255Z,50.08
2023-01-25T17:35:14.106Z,52.80
2023-01-25T17:37:42.002Z,53.17
2023-01-25T17:40:11.416Z,52.45
2023-01-25T17:42:39.900Z,52.13
2023-01-25T17:45:08.089Z,50.50
2023-01-25T17:47:35.876Z,52.50
2023-01-25T17:50:04.023Z,50.53
2023-01-25T17:52:31.572Z,51.88
2023-01-25T17:55:00.609Z,49.53
2023-01-25T17:57:34.734Z,48.80
2023-01-25T18:00:02.265Z,52.40
2023-01-25T18:02:40.282Z,51.22
2023-01-25T18:05:08.075Z,53.33
2023-01-25T18:07:36.161Z,53.35
2023-01-25T18:10:04.551Z,52.65
2023-01-25T18:12:32.368Z,52.42
2023-01-25T18:15:00.024Z,50.95
2023-01-25T18:17:27.860Z,52.70
2023-01-25T18:19:55.443Z,53.30
2023-01-25T18:22:23.678Z,53.47
2023-01-25T18:24:53.085Z,53.63
2023-01-25T18:27:25.399Z,54.92
2023-01-25T18:29:55.626Z,52.63
2023-01-25T18:32:23.465Z,52.47
2023-01-25T18:34:52.376Z,53.33
2023-01-25T18:37:26.020Z,54.30
2023-01-25T18:39:55.055Z,52.30
2023-01-25T18:42:24.711Z,50.30
2023-01-25T18:44:52.908Z,53.90
2023-01-25T18:47:21.830Z,50.92
2023-01-25T18:49:51.316Z,51.03
2023-01-25T18:52:20.247Z,56.87
2023-01-25T18:54:48.064Z,53.17
2023-01-25T18:57:16.014Z,53.78
2023-01-25T18:59:44.026Z,52.38
2023-01-25T19:02:15.697Z,53.22
2023-01-25T19:04:43.238Z,52.50
2023-01-25T19:07:14.942Z,53.55
2023-01-25T19:09:43.881Z,54.20
2023-01-25T19:12:11.737Z,54.58
2023-01-25T19:14:39.468Z,53.72
2023-01-25T19:17:08.334Z,55.88
2023-01-25T19:19:35.881Z,53.60
2023-01-25T19:22:07.030Z,56.75
2023-01-25T19:24:34.980Z,55.42
2023-01-25T19:27:02.580Z,55.85
2023-01-25T19:29:30.210Z,51.85
2023-01-25T19:31:57.595Z,55.47
2023-01-25T19:34:25.555Z,56.28
2023-01-25T19:36:54.082Z,53.67
2023-01-25T19:39:22.987Z,56.75
2023-01-25T19:41:52.922Z,54.95
2023-01-25T19:44:21.428Z,55.40
2023-01-25T19:46:50.168Z,57.20
2023-01-25T19:49:17.893Z,56.33
2023-01-25T19:51:52.842Z,55.72
2023-01-25T19:54:21.844Z,55.72
2023-01-25T19:56:50.850Z,56.88
2023-01-25T19:59:20.755Z,54.40
2023-01-25T20:01:48.951Z,54.65
2023-01-25T20:04:20.182Z,53.42
2023-01-25T20:06:48.249Z,55.75
2023-01-25T20:09:17.470Z,56.50
2023-01-25T20:11:47.416Z,55.80
2023-01-25T20:14:15.476Z,55.50
2023-01-25T20:16:43.069Z,58.50
2023-01-25T20:19:14.100Z,57.47
2023-01-25T20:21:42.938Z,56.85
2023-01-25T20:24:11.015Z,58.53
2023-01-25T20:26:40.074Z,56.90
2023-01-25T20:29:08.160Z,57.58
2023-01-25T20:31:46.261Z,59.38
2023-01-25T20:34:15.907Z,58.90
2023-01-25T20:36:43.909Z,60.63
2023-01-25T20:39:15.560Z,55.60
2023-01-25T20:41:43.939Z,56.42
2023-01-25T20:44:14.856Z,58.25
2023-01-25T20:46:43.016Z,56.78
2023-01-25T20:49:22.309Z,55.85
2023-01-25T20:51:50.906Z,56.03
2023-01-25T20:54:21.793Z,57.75
2023-01-25T20:56:53.637Z,57.25
2023-01-25T20:59:30.634Z,56.55
2023-01-25T21:01:58.316Z,56.28
2023-01-25T21:04:26.246Z,54.83
2023-01-25T21:06:59.032Z,58.47
2023-01-25T21:09:29.164Z,56.33
2023-01-25T21:11:57.111Z,60.30
2023-01-25T21:14:24.886Z,57.10
2023-01-25T21:16:53.539Z,55.60
2023-01-25T21:19:21.598Z,54.97
2023-01-25T21:21:52.235Z,54.55
2023-01-25T21:24:20.613Z,58.00
2023-01-25T21:26:48.710Z,56.13
2023-01-25T21:29:18.908Z,55.30
2023-01-25T21:31:46.552Z,55.45
2023-01-25T21:34:14.377Z,55.97
2023-01-25T21:36:42.135Z,57.22
2023-01-25T21:39:09.812Z,58.83
2023-01-25T21:41:37.257Z,61.33
2023-01-25T21:44:23.917Z,63.33
2023-01-25T21:50:02.446Z,59.42
2023-01-25T21:52:30.069Z,57.92
2023-01-25T21:54:58.082Z,63.72
2023-01-25T21:57:26.120Z,60.67
2023-01-25T21:59:54.498Z,62.28
2023-01-25T22:02:22.737Z,59.28
2023-01-25T22:04:51.602Z,60.53
2023-01-25T22:07:21.122Z,59.50
2023-01-25T22:09:51.626Z,60.87
2023-01-25T22:12:20.531Z,60.40
2023-01-25T22:14:48.216Z,59.92
2023-01-25T22:17:16.125Z,55.95
2023-01-25T22:19:43.645Z,58.80
2023-01-25T22:22:11.658Z,57.22
2023-01-25T22:24:39.269Z,56.10
2023-01-25T22:27:28.347Z,57.08
2023-01-25T22:29:56.124Z,58.97
2023-01-25T22:32:23.737Z,59.20
2023-01-25T22:34:52.557Z,56.95
2023-01-25T22:37:20.192Z,54.72
2023-01-25T22:39:48.324Z,53.85
2023-01-25T22:42:15.716Z,56.55
2023-01-25T22:44:43.830Z,56.38
2023-01-25T22:47:11.781Z,55.42
2023-01-25T22:49:39.517Z,56.33
2023-01-25T22:52:07.171Z,54.22
2023-01-25T22:54:34.730Z,53.55
2023-01-25T22:57:02.843Z,53.80
2023-01-25T22:59:30.467Z,55.15
2023-01-25T23:01:59.938Z,56.08
2023-01-25T23:04:27.677Z,56.87
2023-01-25T23:07:02.964Z,54.28
2023-01-25T23:09:31.055Z,53.17
2023-01-25T23:11:58.616Z,56.47
2023-01-25T23:14:44.842Z,53.60
2023-01-25T23:17:31.314Z,52.15
2023-01-25T23:19:58.975Z,52.35
2023-01-25T23:22:27.925Z,53.97
2023-01-25T23:24:55.732Z,48.55
2023-01-25T23:27:23.389Z,50.90
2023-01-25T23:29:52.442Z,51.47
2023-01-25T23:32:21.246Z,50.80
2023-01-25T23:34:53.278Z,51.95
2023-01-25T23:37:22.148Z,48.60
2023-01-25T23:39:53.033Z,50.40
2023-01-25T23:42:21.470Z,48.30
2023-01-25T23:44:49.057Z,48.65
2023-01-25T23:47:17.601Z,48.03
2023-01-25T23:49:45.175Z,48.88
2023-01-25T23:52:12.789Z,48.92
2023-01-25T23:54:41.382Z,50.42
2023-01-25T23:57:09.664Z,50.47
2023-01-25T23:59:37.153Z,51.63
